sensor_id;sensor_type;location;lat;lon;timestamp;P1;durP1;ratioP1;P2;durP2;ratioP2
79650;SDS011;69121;41.708;21.762;2023-04-24T00:00:16;16.30;;;12.15;;
79650;SDS011;69121;41.708;21.762;2023-04-24T00:02:43;15.85;;;10.55;;
79650;SDS011;69121;41.708;21.762;2023-04-24T00:05:16;14.07;;;10.48;;
79650;SDS011;69121;41.708;21.762;2023-04-24T00:07:45;16.15;;;11.13;;
79650;SDS011;69121;41.708;21.762;2023-04-24T00:10:11;13.07;;;10.23;;
79650;SDS011;69121;41.708;21.762;2023-04-24T00:12:37;14.35;;;11.43;;
79650;SDS011;69121;41.708;21.762;2023-04-24T00:15:04;17.00;;;11.13;;
79650;SDS011;69121;41.708;21.762;2023-04-24T00:17:30;17.55;;;11.85;;
79650;SDS011;69121;41.708;21.762;2023-04-24T00:19:56;15.77;;;11.55;;
79650;SDS011;69121;41.708;21.762;2023-04-24T00:22:29;15.77;;;11.02;;
79650;SDS011;69121;41.708;21.762;2023-04-24T00:24:55;12.60;;;10.40;;
79650;SDS011;69121;41.708;21.762;2023-04-24T00:27:22;12.32;;;9.80;;
79650;SDS011;69121;41.708;21.762;2023-04-24T00:29:48;11.45;;;9.07;;
79650;SDS011;69121;41.708;21.762;2023-04-24T00:32:14;12.18;;;9.63;;
79650;SDS011;69121;41.708;21.762;2023-04-24T00:34:40;12.18;;;10.15;;
79650;SDS011;69121;41.708;21.762;2023-04-24T00:37:07;11.93;;;10.55;;
79650;SDS011;69121;41.708;21.762;2023-04-24T00:39:33;11.98;;;9.43;;
79650;SDS011;69121;41.708;21.762;2023-04-24T00:41:59;12.38;;;10.23;;
79650;SDS011;69121;41.708;21.762;2023-04-24T00:44:26;12.85;;;10.18;;
79650;SDS011;69121;41.708;21.762;2023-04-24T00:46:53;13.93;;;10.07;;
79650;SDS011;69121;41.708;21.762;2023-04-24T00:49:21;12.15;;;10.10;;
79650;SDS011;69121;41.708;21.762;2023-04-24T00:51:47;10.73;;;9.27;;
79650;SDS011;69121;41.708;21.762;2023-04-24T00:54:14;11.40;;;9.52;;
79650;SDS011;69121;41.708;21.762;2023-04-24T00:56:42;12.75;;;8.77;;
79650;SDS011;69121;41.708;21.762;2023-04-24T00:59:08;12.10;;;9.93;;
79650;SDS011;69121;41.708;21.762;2023-04-24T01:01:34;10.60;;;9.32;;
79650;SDS011;69121;41.708;21.762;2023-04-24T01:04:01;12.80;;;9.70;;
79650;SDS011;69121;41.708;21.762;2023-04-24T01:06:27;14.80;;;10.20;;
79650;SDS011;69121;41.708;21.762;2023-04-24T01:08:54;12.60;;;9.90;;
79650;SDS011;69121;41.708;21.762;2023-04-24T01:11:23;12.90;;;9.38;;
79650;SDS011;69121;41.708;21.762;2023-04-24T01:13:50;12.50;;;9.00;;
79650;SDS011;69121;41.708;21.762;2023-04-24T01:16:17;11.85;;;10.20;;
79650;SDS011;69121;41.708;21.762;2023-04-24T01:18:45;12.77;;;9.95;;
79650;SDS011;69121;41.708;21.762;2023-04-24T01:21:13;12.57;;;10.48;;
79650;SDS011;69121;41.708;21.762;2023-04-24T01:23:40;12.57;;;10.77;;
79650;SDS011;69121;41.708;21.762;2023-04-24T01:26:06;11.45;;;9.20;;
79650;SDS011;69121;41.708;21.762;2023-04-24T01:28:32;13.82;;;9.45;;
79650;SDS011;69121;41.708;21.762;2023-04-24T01:30:58;13.13;;;8.88;;
79650;SDS011;69121;41.708;21.762;2023-04-24T01:33:24;11.63;;;9.98;;
79650;SDS011;69121;41.708;21.762;2023-04-24T01:35:51;12.65;;;9.90;;
79650;SDS011;69121;41.708;21.762;2023-04-24T01:38:18;11.85;;;9.50;;
79650;SDS011;69121;41.708;21.762;2023-04-24T01:40:44;11.35;;;9.02;;
79650;SDS011;69121;41.708;21.762;2023-04-24T01:43:11;11.40;;;9.07;;
79650;SDS011;69121;41.708;21.762;2023-04-24T01:45:37;11.55;;;10.30;;
79650;SDS011;69121;41.708;21.762;2023-04-24T01:48:03;13.48;;;10.70;;
79650;SDS011;69121;41.708;21.762;2023-04-24T01:50:30;13.07;;;9.55;;
79650;SDS011;69121;41.708;21.762;2023-04-24T01:52:56;13.02;;;9.43;;
79650;SDS011;69121;41.708;21.762;2023-04-24T01:55:22;13.20;;;9.18;;
79650;SDS011;69121;41.708;21.762;2023-04-24T01:57:48;11.70;;;9.77;;
79650;SDS011;69121;41.708;21.762;2023-04-24T02:00:14;13.60;;;9.95;;
79650;SDS011;69121;41.708;21.762;2023-04-24T02:02:41;13.95;;;9.68;;
79650;SDS011;69121;41.708;21.762;2023-04-24T02:05:08;13.13;;;10.50;;
79650;SDS011;69121;41.708;21.762;2023-04-24T02:10:00;12.73;;;9.30;;
79650;SDS011;69121;41.708;21.762;2023-04-24T02:12:27;12.85;;;10.52;;
79650;SDS011;69121;41.708;21.762;2023-04-24T02:14:53;11.73;;;10.27;;
79650;SDS011;69121;41.708;21.762;2023-04-24T02:17:19;12.48;;;9.55;;
79650;SDS011;69121;41.708;21.762;2023-04-24T02:19:45;12.63;;;10.73;;
79650;SDS011;69121;41.708;21.762;2023-04-24T02:22:11;22.15;;;12.07;;
79650;SDS011;69121;41.708;21.762;2023-04-24T02:24:37;13.38;;;10.82;;
79650;SDS011;69121;41.708;21.762;2023-04-24T02:27:04;12.68;;;9.70;;
79650;SDS011;69121;41.708;21.762;2023-04-24T02:29:30;14.20;;;11.90;;
79650;SDS011;69121;41.708;21.762;2023-04-24T02:31:56;13.60;;;10.73;;
79650;SDS011;69121;41.708;21.762;2023-04-24T02:34:23;15.80;;;11.25;;
79650;SDS011;69121;41.708;21.762;2023-04-24T02:36:49;12.82;;;11.27;;
79650;SDS011;69121;41.708;21.762;2023-04-24T02:39:15;27.77;;;13.57;;
79650;SDS011;69121;41.708;21.762;2023-04-24T02:41:42;16.17;;;12.55;;
79650;SDS011;69121;41.708;21.762;2023-04-24T02:44:08;14.77;;;11.07;;
79650;SDS011;69121;41.708;21.762;2023-04-24T02:46:34;16.00;;;11.07;;
79650;SDS011;69121;41.708;21.762;2023-04-24T02:49:01;14.75;;;10.98;;
79650;SDS011;69121;41.708;21.762;2023-04-24T02:51:27;15.77;;;12.35;;
79650;SDS011;69121;41.708;21.762;2023-04-24T02:53:53;19.98;;;11.75;;
79650;SDS011;69121;41.708;21.762;2023-04-24T02:56:20;20.25;;;12.48;;
79650;SDS011;69121;41.708;21.762;2023-04-24T02:58:46;15.63;;;12.13;;
79650;SDS011;69121;41.708;21.762;2023-04-24T03:01:12;13.43;;;11.38;;
79650;SDS011;69121;41.708;21.762;2023-04-24T03:03:38;13.35;;;9.82;;
79650;SDS011;69121;41.708;21.762;2023-04-24T03:06:05;18.75;;;12.18;;
79650;SDS011;69121;41.708;21.762;2023-04-24T03:08:33;17.38;;;12.60;;
79650;SDS011;69121;41.708;21.762;2023-04-24T03:10:59;14.40;;;11.82;;
79650;SDS011;69121;41.708;21.762;2023-04-24T03:13:26;15.85;;;11.10;;
79650;SDS011;69121;41.708;21.762;2023-04-24T03:15:52;14.32;;;11.57;;
79650;SDS011;69121;41.708;21.762;2023-04-24T03:18:19;20.60;;;12.63;;
79650;SDS011;69121;41.708;21.762;2023-04-24T03:20:45;13.93;;;11.55;;
79650;SDS011;69121;41.708;21.762;2023-04-24T03:23:12;20.40;;;11.55;;
79650;SDS011;69121;41.708;21.762;2023-04-24T03:25:38;16.73;;;11.80;;
79650;SDS011;69121;41.708;21.762;2023-04-24T03:28:05;15.82;;;11.45;;
79650;SDS011;69121;41.708;21.762;2023-04-24T03:30:31;16.63;;;11.63;;
79650;SDS011;69121;41.708;21.762;2023-04-24T03:32:58;21.17;;;11.75;;
79650;SDS011;69121;41.708;21.762;2023-04-24T03:35:24;17.60;;;12.13;;
79650;SDS011;69121;41.708;21.762;2023-04-24T03:37:50;18.83;;;11.50;;
79650;SDS011;69121;41.708;21.762;2023-04-24T03:40:16;15.40;;;11.93;;
79650;SDS011;69121;41.708;21.762;2023-04-24T03:42:42;16.13;;;11.95;;
79650;SDS011;69121;41.708;21.762;2023-04-24T03:45:09;19.83;;;12.63;;
79650;SDS011;69121;41.708;21.762;2023-04-24T03:47:35;19.23;;;12.57;;
79650;SDS011;69121;41.708;21.762;2023-04-24T03:50:01;23.15;;;12.65;;
79650;SDS011;69121;41.708;21.762;2023-04-24T03:52:28;19.27;;;12.50;;
79650;SDS011;69121;41.708;21.762;2023-04-24T03:54:54;18.48;;;12.82;;
79650;SDS011;69121;41.708;21.762;2023-04-24T03:57:20;15.25;;;10.90;;
79650;SDS011;69121;41.708;21.762;2023-04-24T03:59:47;16.58;;;11.68;;
79650;SDS011;69121;41.708;21.762;2023-04-24T04:02:13;30.33;;;13.90;;
79650;SDS011;69121;41.708;21.762;2023-04-24T04:04:39;19.77;;;12.43;;
79650;SDS011;69121;41.708;21.762;2023-04-24T04:07:05;16.20;;;12.40;;
79650;SDS011;69121;41.708;21.762;2023-04-24T04:09:32;19.45;;;12.88;;
79650;SDS011;69121;41.708;21.762;2023-04-24T04:11:58;18.25;;;12.10;;
79650;SDS011;69121;41.708;21.762;2023-04-24T04:14:26;17.88;;;12.38;;
79650;SDS011;69121;41.708;21.762;2023-04-24T04:16:53;18.83;;;12.10;;
79650;SDS011;69121;41.708;21.762;2023-04-24T04:19:19;22.67;;;13.57;;
79650;SDS011;69121;41.708;21.762;2023-04-24T04:21:45;23.75;;;13.80;;
79650;SDS011;69121;41.708;21.762;2023-04-24T04:24:15;34.97;;;18.77;;
79650;SDS011;69121;41.708;21.762;2023-04-24T04:26:41;17.77;;;12.95;;
79650;SDS011;69121;41.708;21.762;2023-04-24T04:29:11;22.10;;;13.23;;
79650;SDS011;69121;41.708;21.762;2023-04-24T04:31:37;22.27;;;14.15;;
79650;SDS011;69121;41.708;21.762;2023-04-24T04:34:03;21.13;;;13.10;;
79650;SDS011;69121;41.708;21.762;2023-04-24T04:36:30;26.13;;;13.25;;
79650;SDS011;69121;41.708;21.762;2023-04-24T04:38:56;18.40;;;12.82;;
79650;SDS011;69121;41.708;21.762;2023-04-24T04:41:24;16.17;;;12.23;;
79650;SDS011;69121;41.708;21.762;2023-04-24T04:43:51;17.40;;;12.02;;
79650;SDS011;69121;41.708;21.762;2023-04-24T04:46:20;20.70;;;12.68;;
79650;SDS011;69121;41.708;21.762;2023-04-24T04:48:54;27.35;;;14.93;;
79650;SDS011;69121;41.708;21.762;2023-04-24T04:51:21;25.00;;;14.77;;
79650;SDS011;69121;41.708;21.762;2023-04-24T04:53:50;18.67;;;13.73;;
79650;SDS011;69121;41.708;21.762;2023-04-24T04:56:16;18.60;;;11.38;;
79650;SDS011;69121;41.708;21.762;2023-04-24T04:58:42;19.40;;;13.65;;
79650;SDS011;69121;41.708;21.762;2023-04-24T05:01:09;17.30;;;14.55;;
79650;SDS011;69121;41.708;21.762;2023-04-24T05:03:38;18.98;;;12.60;;
79650;SDS011;69121;41.708;21.762;2023-04-24T05:06:04;19.52;;;11.68;;
79650;SDS011;69121;41.708;21.762;2023-04-24T05:08:30;18.63;;;11.77;;
79650;SDS011;69121;41.708;21.762;2023-04-24T05:10:57;15.23;;;10.75;;
79650;SDS011;69121;41.708;21.762;2023-04-24T05:13:23;20.35;;;11.95;;
79650;SDS011;69121;41.708;21.762;2023-04-24T05:15:49;19.13;;;11.70;;
79650;SDS011;69121;41.708;21.762;2023-04-24T05:18:18;15.40;;;9.82;;
79650;SDS011;69121;41.708;21.762;2023-04-24T05:20:44;16.25;;;11.25;;
79650;SDS011;69121;41.708;21.762;2023-04-24T05:23:10;13.50;;;10.95;;
79650;SDS011;69121;41.708;21.762;2023-04-24T05:25:36;11.98;;;10.10;;
79650;SDS011;69121;41.708;21.762;2023-04-24T05:28:05;12.25;;;10.15;;
79650;SDS011;69121;41.708;21.762;2023-04-24T05:30:31;13.85;;;10.82;;
79650;SDS011;69121;41.708;21.762;2023-04-24T05:35:41;14.27;;;11.48;;
79650;SDS011;69121;41.708;21.762;2023-04-24T05:38:20;12.63;;;11.32;;
79650;SDS011;69121;41.708;21.762;2023-04-24T05:41:04;16.00;;;11.13;;
79650;SDS011;69121;41.708;21.762;2023-04-24T05:43:47;16.15;;;11.82;;
79650;SDS011;69121;41.708;21.762;2023-04-24T05:46:33;11.88;;;9.43;;
79650;SDS011;69121;41.708;21.762;2023-04-24T05:49:02;16.15;;;11.85;;
79650;SDS011;69121;41.708;21.762;2023-04-24T05:51:33;12.95;;;10.93;;
79650;SDS011;69121;41.708;21.762;2023-04-24T05:54:04;13.20;;;11.23;;
79650;SDS011;69121;41.708;21.762;2023-04-24T05:56:33;13.57;;;10.57;;
79650;SDS011;69121;41.708;21.762;2023-04-24T05:59:04;17.42;;;12.50;;
79650;SDS011;69121;41.708;21.762;2023-04-24T06:01:53;13.85;;;9.75;;
79650;SDS011;69121;41.708;21.762;2023-04-24T06:04:19;23.63;;;15.75;;
79650;SDS011;69121;41.708;21.762;2023-04-24T06:06:45;43.13;;;23.15;;
79650;SDS011;69121;41.708;21.762;2023-04-24T06:09:15;15.82;;;11.68;;
79650;SDS011;69121;41.708;21.762;2023-04-24T06:14:10;15.52;;;10.82;;
79650;SDS011;69121;41.708;21.762;2023-04-24T06:16:36;14.88;;;11.20;;
79650;SDS011;69121;41.708;21.762;2023-04-24T06:19:03;12.68;;;10.75;;
79650;SDS011;69121;41.708;21.762;2023-04-24T06:21:30;14.15;;;11.45;;
79650;SDS011;69121;41.708;21.762;2023-04-24T06:23:56;15.38;;;10.48;;
79650;SDS011;69121;41.708;21.762;2023-04-24T06:26:23;21.15;;;13.63;;
79650;SDS011;69121;41.708;21.762;2023-04-24T06:28:52;21.15;;;15.23;;
79650;SDS011;69121;41.708;21.762;2023-04-24T06:31:21;20.58;;;13.25;;
79650;SDS011;69121;41.708;21.762;2023-04-24T06:33:48;32.25;;;20.70;;
79650;SDS011;69121;41.708;21.762;2023-04-24T06:36:14;17.10;;;11.32;;
79650;SDS011;69121;41.708;21.762;2023-04-24T06:38:41;19.05;;;12.07;;
79650;SDS011;69121;41.708;21.762;2023-04-24T06:41:07;16.80;;;11.48;;
79650;SDS011;69121;41.708;21.762;2023-04-24T06:43:33;17.02;;;12.55;;
79650;SDS011;69121;41.708;21.762;2023-04-24T06:45:59;14.95;;;11.50;;
79650;SDS011;69121;41.708;21.762;2023-04-24T06:48:26;13.27;;;9.60;;
79650;SDS011;69121;41.708;21.762;2023-04-24T06:50:52;16.13;;;11.82;;
79650;SDS011;69121;41.708;21.762;2023-04-24T06:53:18;13.82;;;10.32;;
79650;SDS011;69121;41.708;21.762;2023-04-24T06:55:44;12.85;;;9.73;;
79650;SDS011;69121;41.708;21.762;2023-04-24T06:58:11;10.38;;;7.90;;
79650;SDS011;69121;41.708;21.762;2023-04-24T07:00:37;14.43;;;9.75;;
79650;SDS011;69121;41.708;21.762;2023-04-24T07:03:05;13.55;;;8.02;;
79650;SDS011;69121;41.708;21.762;2023-04-24T07:05:35;9.95;;;7.90;;
79650;SDS011;69121;41.708;21.762;2023-04-24T07:08:02;9.27;;;8.02;;
79650;SDS011;69121;41.708;21.762;2023-04-24T07:10:29;12.80;;;7.35;;
79650;SDS011;69121;41.708;21.762;2023-04-24T07:12:55;11.35;;;7.43;;
79650;SDS011;69121;41.708;21.762;2023-04-24T07:15:22;13.13;;;8.95;;
79650;SDS011;69121;41.708;21.762;2023-04-24T07:17:51;9.75;;;8.00;;
79650;SDS011;69121;41.708;21.762;2023-04-24T07:20:20;10.48;;;7.47;;
79650;SDS011;69121;41.708;21.762;2023-04-24T07:22:49;12.52;;;8.35;;
79650;SDS011;69121;41.708;21.762;2023-04-24T07:25:16;9.40;;;7.05;;
79650;SDS011;69121;41.708;21.762;2023-04-24T07:44:02;9.68;;;8.13;;
79650;SDS011;69121;41.708;21.762;2023-04-24T07:46:49;11.98;;;7.82;;
79650;SDS011;69121;41.708;21.762;2023-04-24T07:49:22;10.98;;;7.78;;
79650;SDS011;69121;41.708;21.762;2023-04-24T07:52:18;10.50;;;7.80;;
79650;SDS011;69121;41.708;21.762;2023-04-24T08:07:53;10.18;;;8.30;;
79650;SDS011;69121;41.708;21.762;2023-04-24T08:14:06;9.00;;;6.40;;
79650;SDS011;69121;41.708;21.762;2023-04-24T08:16:53;9.32;;;7.03;;
79650;SDS011;69121;41.708;21.762;2023-04-24T08:25:05;8.88;;;7.18;;
79650;SDS011;69121;41.708;21.762;2023-04-24T08:34:01;8.70;;;6.50;;
79650;SDS011;69121;41.708;21.762;2023-04-24T08:36:31;9.45;;;7.75;;
79650;SDS011;69121;41.708;21.762;2023-04-24T08:42:10;10.07;;;7.50;;
79650;SDS011;69121;41.708;21.762;2023-04-24T08:44:49;10.60;;;7.45;;
79650;SDS011;69121;41.708;21.762;2023-04-24T08:47:41;10.53;;;7.10;;
79650;SDS011;69121;41.708;21.762;2023-04-24T08:50:27;9.97;;;6.57;;
79650;SDS011;69121;41.708;21.762;2023-04-24T08:53:05;9.07;;;6.70;;
79650;SDS011;69121;41.708;21.762;2023-04-24T09:08:19;8.40;;;7.07;;
79650;SDS011;69121;41.708;21.762;2023-04-24T09:14:41;12.23;;;7.47;;
79650;SDS011;69121;41.708;21.762;2023-04-24T09:17:10;8.65;;;6.50;;
79650;SDS011;69121;41.708;21.762;2023-04-24T09:19:56;13.68;;;7.40;;
79650;SDS011;69121;41.708;21.762;2023-04-24T09:28:37;9.73;;;7.20;;
79650;SDS011;69121;41.708;21.762;2023-04-24T09:31:12;6.80;;;5.75;;
79650;SDS011;69121;41.708;21.762;2023-04-24T09:42:51;12.20;;;8.40;;
79650;SDS011;69121;41.708;21.762;2023-04-24T09:46:00;6.97;;;5.25;;
79650;SDS011;69121;41.708;21.762;2023-04-24T09:58:10;6.90;;;5.68;;
79650;SDS011;69121;41.708;21.762;2023-04-24T10:03:51;9.52;;;6.07;;
79650;SDS011;69121;41.708;21.762;2023-04-24T10:16:16;10.13;;;5.75;;
79650;SDS011;69121;41.708;21.762;2023-04-24T10:18:52;7.22;;;6.32;;
79650;SDS011;69121;41.708;21.762;2023-04-24T10:27:38;12.73;;;9.25;;
79650;SDS011;69121;41.708;21.762;2023-04-24T10:30:20;6.32;;;5.72;;
79650;SDS011;69121;41.708;21.762;2023-04-24T11:20:58;6.70;;;5.97;;
79650;SDS011;69121;41.708;21.762;2023-04-24T11:23:25;8.00;;;5.70;;
79650;SDS011;69121;41.708;21.762;2023-04-24T11:26:09;11.93;;;7.40;;
79650;SDS011;69121;41.708;21.762;2023-04-24T11:28:36;7.28;;;6.57;;
79650;SDS011;69121;41.708;21.762;2023-04-24T11:33:47;8.38;;;7.03;;
79650;SDS011;69121;41.708;21.762;2023-04-24T11:36:13;13.95;;;6.38;;
79650;SDS011;69121;41.708;21.762;2023-04-24T11:38:39;7.78;;;6.55;;
79650;SDS011;69121;41.708;21.762;2023-04-24T11:41:11;7.38;;;6.22;;
79650;SDS011;69121;41.708;21.762;2023-04-24T11:43:40;6.80;;;5.30;;
79650;SDS011;69121;41.708;21.762;2023-04-24T11:46:10;6.65;;;5.35;;
79650;SDS011;69121;41.708;21.762;2023-04-24T11:48:36;6.43;;;5.72;;
79650;SDS011;69121;41.708;21.762;2023-04-24T11:53:57;5.93;;;5.32;;
79650;SDS011;69121;41.708;21.762;2023-04-24T11:56:25;8.95;;;7.40;;
79650;SDS011;69121;41.708;21.762;2023-04-24T11:58:52;6.38;;;5.78;;
79650;SDS011;69121;41.708;21.762;2023-04-24T12:01:20;9.25;;;5.40;;
79650;SDS011;69121;41.708;21.762;2023-04-24T12:03:58;6.38;;;5.78;;
79650;SDS011;69121;41.708;21.762;2023-04-24T12:07:01;6.13;;;5.00;;
79650;SDS011;69121;41.708;21.762;2023-04-24T12:13:10;5.75;;;4.80;;
79650;SDS011;69121;41.708;21.762;2023-04-24T12:19:10;6.57;;;5.53;;
79650;SDS011;69121;41.708;21.762;2023-04-24T12:21:58;7.85;;;4.38;;
79650;SDS011;69121;41.708;21.762;2023-04-24T12:36:35;6.55;;;4.93;;
79650;SDS011;69121;41.708;21.762;2023-04-24T12:45:01;5.78;;;4.93;;
79650;SDS011;69121;41.708;21.762;2023-04-24T12:47:31;5.53;;;4.60;;
79650;SDS011;69121;41.708;21.762;2023-04-24T12:49:58;6.22;;;5.63;;
79650;SDS011;69121;41.708;21.762;2023-04-24T12:52:49;7.75;;;4.53;;
79650;SDS011;69121;41.708;21.762;2023-04-24T12:55:26;7.97;;;5.20;;
79650;SDS011;69121;41.708;21.762;2023-04-24T12:58:08;6.47;;;5.45;;
79650;SDS011;69121;41.708;21.762;2023-04-24T13:00:42;6.13;;;5.30;;
79650;SDS011;69121;41.708;21.762;2023-04-24T13:03:30;8.57;;;5.43;;
79650;SDS011;69121;41.708;21.762;2023-04-24T13:05:58;6.45;;;5.38;;
79650;SDS011;69121;41.708;21.762;2023-04-24T13:08:24;5.75;;;5.05;;
79650;SDS011;69121;41.708;21.762;2023-04-24T13:10:50;9.40;;;6.22;;
79650;SDS011;69121;41.708;21.762;2023-04-24T13:13:19;6.03;;;5.53;;
79650;SDS011;69121;41.708;21.762;2023-04-24T13:15:45;6.63;;;5.50;;
79650;SDS011;69121;41.708;21.762;2023-04-24T13:18:11;11.70;;;6.00;;
79650;SDS011;69121;41.708;21.762;2023-04-24T13:20:37;6.55;;;5.53;;
79650;SDS011;69121;41.708;21.762;2023-04-24T13:23:05;7.50;;;4.90;;
79650;SDS011;69121;41.708;21.762;2023-04-24T13:25:34;7.45;;;5.43;;
79650;SDS011;69121;41.708;21.762;2023-04-24T13:28:01;5.47;;;4.85;;
79650;SDS011;69121;41.708;21.762;2023-04-24T13:33:15;8.60;;;5.25;;
79650;SDS011;69121;41.708;21.762;2023-04-24T13:35:42;6.53;;;4.80;;
79650;SDS011;69121;41.708;21.762;2023-04-24T13:38:08;5.85;;;4.90;;
79650;SDS011;69121;41.708;21.762;2023-04-24T13:40:34;7.07;;;5.68;;
79650;SDS011;69121;41.708;21.762;2023-04-24T13:54:38;11.20;;;7.07;;
79650;SDS011;69121;41.708;21.762;2023-04-24T14:00:21;8.00;;;5.53;;
79650;SDS011;69121;41.708;21.762;2023-04-24T14:02:55;10.90;;;6.35;;
79650;SDS011;69121;41.708;21.762;2023-04-24T14:11:22;13.15;;;7.32;;
79650;SDS011;69121;41.708;21.762;2023-04-24T14:17:05;8.88;;;6.57;;
79650;SDS011;69121;41.708;21.762;2023-04-24T14:19:45;9.73;;;8.25;;
79650;SDS011;69121;41.708;21.762;2023-04-24T14:22:26;8.70;;;7.03;;
79650;SDS011;69121;41.708;21.762;2023-04-24T14:24:55;9.27;;;7.13;;
79650;SDS011;69121;41.708;21.762;2023-04-24T14:27:32;11.82;;;9.00;;
79650;SDS011;69121;41.708;21.762;2023-04-24T14:30:10;9.30;;;7.70;;
79650;SDS011;69121;41.708;21.762;2023-04-24T14:32:57;11.00;;;9.02;;
79650;SDS011;69121;41.708;21.762;2023-04-24T14:35:26;9.05;;;6.70;;
79650;SDS011;69121;41.708;21.762;2023-04-24T14:37:57;8.80;;;7.40;;
79650;SDS011;69121;41.708;21.762;2023-04-24T14:40:23;10.52;;;7.30;;
79650;SDS011;69121;41.708;21.762;2023-04-24T14:42:50;10.27;;;7.10;;
79650;SDS011;69121;41.708;21.762;2023-04-24T14:45:22;8.05;;;6.90;;
79650;SDS011;69121;41.708;21.762;2023-04-24T14:47:48;8.05;;;7.13;;
79650;SDS011;69121;41.708;21.762;2023-04-24T14:50:14;6.60;;;5.65;;
79650;SDS011;69121;41.708;21.762;2023-04-24T14:52:40;9.88;;;7.57;;
79650;SDS011;69121;41.708;21.762;2023-04-24T14:55:17;9.27;;;6.47;;
79650;SDS011;69121;41.708;21.762;2023-04-24T14:57:43;6.57;;;5.78;;
79650;SDS011;69121;41.708;21.762;2023-04-24T15:00:09;9.75;;;6.85;;
79650;SDS011;69121;41.708;21.762;2023-04-24T15:02:36;7.40;;;6.43;;
79650;SDS011;69121;41.708;21.762;2023-04-24T15:05:06;8.07;;;6.30;;
79650;SDS011;69121;41.708;21.762;2023-04-24T15:07:46;8.65;;;7.20;;
79650;SDS011;69121;41.708;21.762;2023-04-24T15:10:13;8.73;;;6.88;;
79650;SDS011;69121;41.708;21.762;2023-04-24T15:12:39;7.20;;;6.47;;
79650;SDS011;69121;41.708;21.762;2023-04-24T15:15:05;7.53;;;6.72;;
79650;SDS011;69121;41.708;21.762;2023-04-24T15:17:32;8.43;;;7.38;;
79650;SDS011;69121;41.708;21.762;2023-04-24T15:20:01;8.90;;;6.97;;
79650;SDS011;69121;41.708;21.762;2023-04-24T15:22:31;9.32;;;6.22;;
79650;SDS011;69121;41.708;21.762;2023-04-24T15:24:57;9.80;;;7.00;;
79650;SDS011;69121;41.708;21.762;2023-04-24T15:27:24;10.00;;;7.53;;
79650;SDS011;69121;41.708;21.762;2023-04-24T15:29:50;11.73;;;8.38;;
79650;SDS011;69121;41.708;21.762;2023-04-24T15:32:23;9.13;;;7.97;;
79650;SDS011;69121;41.708;21.762;2023-04-24T15:34:49;50.70;;;7.85;;
79650;SDS011;69121;41.708;21.762;2023-04-24T15:37:15;14.73;;;5.35;;
